New Market, Ohio
Current Conditions -  °F | °C
As of 12:54 PM on Friday 24 Oct 2014 (Local Time) from KILN Reporting Station
Clear Clear  
Wind Chill: 60°   Ceiling: Unl
Heat Index: 60°   Visibility: 10mi
Dew Point: 39°   Wind: 7mph
Humidity: 46%   Direction: 270°W
Pressure: 30.1"   Gusts: NA
Location:  39.1546°N, 83.569°W
Report Text: KILN 241654Z AUTO 27006KT 10SM CLR 16/04 A3010 RMK AO2 SLP203 T01560039
Loading
Personal Weather Stations






























Interactive Weather Map
Tropical Storm Tracking
New forecast layout! Learn more

10-Day Weather Forecast

Advertisements
Track Severe Weather on mobile